sensor_id;sensor_type;location;lat;lon;timestamp;temperature;humidity
45066;DHT22;30830;53.704;10.004;2023-07-20T00:01:57;13.50;99.90
45066;DHT22;30830;53.704;10.004;2023-07-20T00:04:23;13.50;99.90
45066;DHT22;30830;53.704;10.004;2023-07-20T00:06:48;13.40;99.90
45066;DHT22;30830;53.704;10.004;2023-07-20T00:09:14;13.50;99.90
45066;DHT22;30830;53.704;10.004;2023-07-20T00:11:39;13.50;99.90
45066;DHT22;30830;53.704;10.004;2023-07-20T00:14:05;13.50;99.90
45066;DHT22;30830;53.704;10.004;2023-07-20T00:16:31;13.50;99.90
45066;DHT22;30830;53.704;10.004;2023-07-20T00:18:57;13.50;99.90
45066;DHT22;30830;53.704;10.004;2023-07-20T00:21:22;13.60;99.90
45066;DHT22;30830;53.704;10.004;2023-07-20T00:23:48;13.60;99.90
45066;DHT22;30830;53.704;10.004;2023-07-20T00:26:13;13.60;99.90
45066;DHT22;30830;53.704;10.004;2023-07-20T00:28:39;13.60;99.90
45066;DHT22;30830;53.704;10.004;2023-07-20T00:31:05;13.60;99.90
45066;DHT22;30830;53.704;10.004;2023-07-20T00:33:30;13.70;99.90
45066;DHT22;30830;53.704;10.004;2023-07-20T00:35:56;13.70;99.90
45066;DHT22;30830;53.704;10.004;2023-07-20T00:38:22;13.70;99.90
45066;DHT22;30830;53.704;10.004;2023-07-20T00:40:47;13.70;99.90
45066;DHT22;30830;53.704;10.004;2023-07-20T00:43:14;13.70;99.90
45066;DHT22;30830;53.704;10.004;2023-07-20T00:45:40;13.70;99.90
45066;DHT22;30830;53.704;10.004;2023-07-20T00:48:06;13.70;99.90
45066;DHT22;30830;53.704;10.004;2023-07-20T00:50:33;13.70;99.90
45066;DHT22;30830;53.704;10.004;2023-07-20T00:52:59;13.70;99.90
45066;DHT22;30830;53.704;10.004;2023-07-20T00:55:25;13.70;99.90
45066;DHT22;30830;53.704;10.004;2023-07-20T00:57:52;13.70;99.90
45066;DHT22;30830;53.704;10.004;2023-07-20T01:00:17;13.70;99.90
45066;DHT22;30830;53.704;10.004;2023-07-20T01:02:44;13.70;99.90
45066;DHT22;30830;53.704;10.004;2023-07-20T01:05:10;13.70;99.90
45066;DHT22;30830;53.704;10.004;2023-07-20T01:07:49;13.70;99.90
45066;DHT22;30830;53.704;10.004;2023-07-20T01:10:28;13.70;99.90
45066;DHT22;30830;53.704;10.004;2023-07-20T01:12:55;13.70;99.90
45066;DHT22;30830;53.704;10.004;2023-07-20T01:15:20;13.60;99.90
45066;DHT22;30830;53.704;10.004;2023-07-20T01:17:46;13.60;99.90
45066;DHT22;30830;53.704;10.004;2023-07-20T01:20:17;13.70;99.90
45066;DHT22;30830;53.704;10.004;2023-07-20T01:25:40;13.60;99.90
45066;DHT22;30830;53.704;10.004;2023-07-20T01:31:14;13.60;99.90
45066;DHT22;30830;53.704;10.004;2023-07-20T01:33:41;13.60;99.90
45066;DHT22;30830;53.704;10.004;2023-07-20T01:36:08;13.70;99.90
45066;DHT22;30830;53.704;10.004;2023-07-20T01:38:34;13.60;99.90
45066;DHT22;30830;53.704;10.004;2023-07-20T01:41:01;13.70;99.90
45066;DHT22;30830;53.704;10.004;2023-07-20T01:43:27;13.70;99.90
45066;DHT22;30830;53.704;10.004;2023-07-20T01:45:53;13.70;99.90
45066;DHT22;30830;53.704;10.004;2023-07-20T01:48:18;13.70;99.90
45066;DHT22;30830;53.704;10.004;2023-07-20T01:50:44;13.70;99.90
45066;DHT22;30830;53.704;10.004;2023-07-20T01:53:09;13.70;99.90
45066;DHT22;30830;53.704;10.004;2023-07-20T01:55:35;13.70;99.90
45066;DHT22;30830;53.704;10.004;2023-07-20T01:58:01;13.70;99.90
45066;DHT22;30830;53.704;10.004;2023-07-20T02:00:27;13.70;99.90
45066;DHT22;30830;53.704;10.004;2023-07-20T02:02:52;13.70;99.90
45066;DHT22;30830;53.704;10.004;2023-07-20T02:05:18;13.70;99.90
45066;DHT22;30830;53.704;10.004;2023-07-20T02:07:43;13.70;99.90
45066;DHT22;30830;53.704;10.004;2023-07-20T02:10:09;13.70;99.90
45066;DHT22;30830;53.704;10.004;2023-07-20T02:12:35;13.60;99.90
45066;DHT22;30830;53.704;10.004;2023-07-20T02:15:02;13.60;99.90
45066;DHT22;30830;53.704;10.004;2023-07-20T02:17:27;13.60;99.90
45066;DHT22;30830;53.704;10.004;2023-07-20T02:19:54;13.60;99.90
45066;DHT22;30830;53.704;10.004;2023-07-20T02:22:20;13.60;99.90
45066;DHT22;30830;53.704;10.004;2023-07-20T02:24:46;13.60;99.90
45066;DHT22;30830;53.704;10.004;2023-07-20T02:27:12;13.60;99.90
45066;DHT22;30830;53.704;10.004;2023-07-20T02:29:37;13.60;99.90
45066;DHT22;30830;53.704;10.004;2023-07-20T02:32:03;13.70;99.90
45066;DHT22;30830;53.704;10.004;2023-07-20T02:34:29;13.60;99.90
45066;DHT22;30830;53.704;10.004;2023-07-20T02:36:55;13.60;99.90
45066;DHT22;30830;53.704;10.004;2023-07-20T02:39:24;13.60;99.90
45066;DHT22;30830;53.704;10.004;2023-07-20T02:41:49;13.60;99.90
45066;DHT22;30830;53.704;10.004;2023-07-20T02:44:15;13.60;99.90
45066;DHT22;30830;53.704;10.004;2023-07-20T02:46:41;13.70;99.90
45066;DHT22;30830;53.704;10.004;2023-07-20T02:49:06;13.70;99.90
45066;DHT22;30830;53.704;10.004;2023-07-20T02:51:32;13.70;99.90
45066;DHT22;30830;53.704;10.004;2023-07-20T02:53:58;13.70;99.90
45066;DHT22;30830;53.704;10.004;2023-07-20T02:56:24;13.60;99.90
45066;DHT22;30830;53.704;10.004;2023-07-20T02:58:51;13.70;99.90
45066;DHT22;30830;53.704;10.004;2023-07-20T03:01:17;13.60;99.90
45066;DHT22;30830;53.704;10.004;2023-07-20T03:03:43;13.70;99.90
45066;DHT22;30830;53.704;10.004;2023-07-20T03:06:15;13.60;99.90
45066;DHT22;30830;53.704;10.004;2023-07-20T03:08:41;13.60;99.90
45066;DHT22;30830;53.704;10.004;2023-07-20T03:11:07;13.60;99.90
45066;DHT22;30830;53.704;10.004;2023-07-20T03:13:33;13.60;99.90
45066;DHT22;30830;53.704;10.004;2023-07-20T03:15:58;13.60;99.90
45066;DHT22;30830;53.704;10.004;2023-07-20T03:18:24;13.70;99.90
45066;DHT22;30830;53.704;10.004;2023-07-20T03:20:49;13.70;99.90
45066;DHT22;30830;53.704;10.004;2023-07-20T03:23:15;13.70;99.90
45066;DHT22;30830;53.704;10.004;2023-07-20T03:25:41;13.60;99.90
45066;DHT22;30830;53.704;10.004;2023-07-20T03:28:07;13.70;99.90
45066;DHT22;30830;53.704;10.004;2023-07-20T03:30:33;13.70;99.90
45066;DHT22;30830;53.704;10.004;2023-07-20T03:32:58;13.60;99.90
45066;DHT22;30830;53.704;10.004;2023-07-20T03:35:24;13.60;99.90
45066;DHT22;30830;53.704;10.004;2023-07-20T03:37:49;13.70;99.90
45066;DHT22;30830;53.704;10.004;2023-07-20T03:40:15;13.70;99.90
45066;DHT22;30830;53.704;10.004;2023-07-20T03:42:41;13.70;99.90
45066;DHT22;30830;53.704;10.004;2023-07-20T03:45:07;13.70;99.90
45066;DHT22;30830;53.704;10.004;2023-07-20T03:47:33;13.70;99.90
45066;DHT22;30830;53.704;10.004;2023-07-20T03:49:59;13.60;99.90
45066;DHT22;30830;53.704;10.004;2023-07-20T03:52:24;13.70;99.90
45066;DHT22;30830;53.704;10.004;2023-07-20T03:54:50;13.70;99.90
45066;DHT22;30830;53.704;10.004;2023-07-20T03:57:16;13.70;99.90
45066;DHT22;30830;53.704;10.004;2023-07-20T03:59:45;13.70;99.90
45066;DHT22;30830;53.704;10.004;2023-07-20T04:02:11;13.70;99.90
45066;DHT22;30830;53.704;10.004;2023-07-20T04:04:37;13.70;99.90
45066;DHT22;30830;53.704;10.004;2023-07-20T04:07:04;13.70;99.90
45066;DHT22;30830;53.704;10.004;2023-07-20T04:09:31;13.60;99.90
45066;DHT22;30830;53.704;10.004;2023-07-20T04:11:57;13.60;99.90
45066;DHT22;30830;53.704;10.004;2023-07-20T04:14:23;13.70;99.90
45066;DHT22;30830;53.704;10.004;2023-07-20T04:16:49;13.70;99.90
45066;DHT22;30830;53.704;10.004;2023-07-20T04:19:16;13.70;99.90
45066;DHT22;30830;53.704;10.004;2023-07-20T04:21:43;13.70;99.90
45066;DHT22;30830;53.704;10.004;2023-07-20T04:24:09;13.70;99.90
45066;DHT22;30830;53.704;10.004;2023-07-20T04:26:35;13.70;99.90
45066;DHT22;30830;53.704;10.004;2023-07-20T04:29:01;13.70;99.90
45066;DHT22;30830;53.704;10.004;2023-07-20T04:31:26;13.70;99.90
45066;DHT22;30830;53.704;10.004;2023-07-20T04:33:52;13.70;99.90
45066;DHT22;30830;53.704;10.004;2023-07-20T04:36:17;13.80;99.90
45066;DHT22;30830;53.704;10.004;2023-07-20T04:38:45;13.80;99.90
45066;DHT22;30830;53.704;10.004;2023-07-20T04:41:11;13.80;99.90
45066;DHT22;30830;53.704;10.004;2023-07-20T04:43:43;13.80;99.90
45066;DHT22;30830;53.704;10.004;2023-07-20T04:46:12;13.80;99.90
45066;DHT22;30830;53.704;10.004;2023-07-20T04:48:38;13.80;99.90
45066;DHT22;30830;53.704;10.004;2023-07-20T04:51:04;13.80;99.90
45066;DHT22;30830;53.704;10.004;2023-07-20T04:53:29;13.80;99.90
45066;DHT22;30830;53.704;10.004;2023-07-20T04:55:56;13.90;99.90
45066;DHT22;30830;53.704;10.004;2023-07-20T04:58:22;13.90;99.90
45066;DHT22;30830;53.704;10.004;2023-07-20T05:00:51;13.90;99.90
45066;DHT22;30830;53.704;10.004;2023-07-20T05:03:17;13.90;99.90
45066;DHT22;30830;53.704;10.004;2023-07-20T05:05:43;13.90;99.90
45066;DHT22;30830;53.704;10.004;2023-07-20T05:08:09;13.90;99.90
45066;DHT22;30830;53.704;10.004;2023-07-20T05:10:35;14.00;99.90
45066;DHT22;30830;53.704;10.004;2023-07-20T05:13:00;14.00;99.90
45066;DHT22;30830;53.704;10.004;2023-07-20T05:15:26;14.10;99.90
45066;DHT22;30830;53.704;10.004;2023-07-20T05:17:51;14.20;99.90
45066;DHT22;30830;53.704;10.004;2023-07-20T05:20:17;14.10;99.90
45066;DHT22;30830;53.704;10.004;2023-07-20T05:22:43;14.20;99.90
45066;DHT22;30830;53.704;10.004;2023-07-20T05:25:09;14.20;99.90
45066;DHT22;30830;53.704;10.004;2023-07-20T05:27:39;14.20;99.90
45066;DHT22;30830;53.704;10.004;2023-07-20T05:30:06;14.20;99.90
45066;DHT22;30830;53.704;10.004;2023-07-20T05:32:32;14.20;99.90
45066;DHT22;30830;53.704;10.004;2023-07-20T05:34:58;14.30;99.90
45066;DHT22;30830;53.704;10.004;2023-07-20T05:37:24;14.30;99.90
45066;DHT22;30830;53.704;10.004;2023-07-20T05:39:50;14.30;99.90
45066;DHT22;30830;53.704;10.004;2023-07-20T05:42:15;14.30;99.90
45066;DHT22;30830;53.704;10.004;2023-07-20T05:44:41;14.40;99.90
45066;DHT22;30830;53.704;10.004;2023-07-20T05:47:07;14.50;99.90
45066;DHT22;30830;53.704;10.004;2023-07-20T05:49:34;14.50;99.90
45066;DHT22;30830;53.704;10.004;2023-07-20T05:51:59;14.60;99.90
45066;DHT22;30830;53.704;10.004;2023-07-20T05:54:26;14.70;99.90
45066;DHT22;30830;53.704;10.004;2023-07-20T05:56:52;14.70;99.90
45066;DHT22;30830;53.704;10.004;2023-07-20T05:59:18;14.70;99.90
45066;DHT22;30830;53.704;10.004;2023-07-20T06:01:45;14.80;99.90
45066;DHT22;30830;53.704;10.004;2023-07-20T06:04:11;15.00;99.90
45066;DHT22;30830;53.704;10.004;2023-07-20T06:06:36;15.00;99.90
45066;DHT22;30830;53.704;10.004;2023-07-20T06:09:02;15.10;99.90
45066;DHT22;30830;53.704;10.004;2023-07-20T06:11:33;15.20;99.90
45066;DHT22;30830;53.704;10.004;2023-07-20T06:13:59;15.30;99.90
45066;DHT22;30830;53.704;10.004;2023-07-20T06:16:24;15.40;99.90
45066;DHT22;30830;53.704;10.004;2023-07-20T06:18:50;15.50;99.90
45066;DHT22;30830;53.704;10.004;2023-07-20T06:21:15;15.60;99.90
45066;DHT22;30830;53.704;10.004;2023-07-20T06:23:41;15.70;99.90
45066;DHT22;30830;53.704;10.004;2023-07-20T06:26:07;15.80;99.90
45066;DHT22;30830;53.704;10.004;2023-07-20T06:28:33;15.90;99.90
45066;DHT22;30830;53.704;10.004;2023-07-20T06:31:02;16.00;99.90
45066;DHT22;30830;53.704;10.004;2023-07-20T06:33:28;16.10;99.90
45066;DHT22;30830;53.704;10.004;2023-07-20T06:35:53;16.20;99.90
45066;DHT22;30830;53.704;10.004;2023-07-20T06:38:19;16.20;99.90
45066;DHT22;30830;53.704;10.004;2023-07-20T06:40:48;16.30;99.90
45066;DHT22;30830;53.704;10.004;2023-07-20T06:43:13;16.30;99.90
45066;DHT22;30830;53.704;10.004;2023-07-20T06:45:39;16.40;99.90
45066;DHT22;30830;53.704;10.004;2023-07-20T06:48:04;16.40;99.90
45066;DHT22;30830;53.704;10.004;2023-07-20T06:50:30;16.50;99.90
45066;DHT22;30830;53.704;10.004;2023-07-20T06:52:55;16.50;99.90
45066;DHT22;30830;53.704;10.004;2023-07-20T06:55:21;16.70;99.90
45066;DHT22;30830;53.704;10.004;2023-07-20T06:57:47;16.80;99.90
45066;DHT22;30830;53.704;10.004;2023-07-20T07:00:13;16.90;99.90
45066;DHT22;30830;53.704;10.004;2023-07-20T07:02:38;17.00;99.90
45066;DHT22;30830;53.704;10.004;2023-07-20T07:05:04;17.10;99.90
45066;DHT22;30830;53.704;10.004;2023-07-20T07:07:30;17.30;99.90
45066;DHT22;30830;53.704;10.004;2023-07-20T07:09:56;17.50;99.90
45066;DHT22;30830;53.704;10.004;2023-07-20T07:12:21;17.60;99.90
45066;DHT22;30830;53.704;10.004;2023-07-20T07:14:47;17.70;99.90
45066;DHT22;30830;53.704;10.004;2023-07-20T07:17:12;17.80;99.90
45066;DHT22;30830;53.704;10.004;2023-07-20T07:19:38;17.90;99.90
45066;DHT22;30830;53.704;10.004;2023-07-20T07:22:04;18.10;99.90
45066;DHT22;30830;53.704;10.004;2023-07-20T07:24:29;18.20;99.90
45066;DHT22;30830;53.704;10.004;2023-07-20T07:26:59;18.40;99.90
45066;DHT22;30830;53.704;10.004;2023-07-20T07:29:25;18.30;99.90
45066;DHT22;30830;53.704;10.004;2023-07-20T07:31:51;18.00;99.90
45066;DHT22;30830;53.704;10.004;2023-07-20T07:34:16;17.80;99.90
45066;DHT22;30830;53.704;10.004;2023-07-20T07:36:42;17.40;99.90
45066;DHT22;30830;53.704;10.004;2023-07-20T07:39:08;17.10;99.90
45066;DHT22;30830;53.704;10.004;2023-07-20T07:41:35;16.80;99.90
45066;DHT22;30830;53.704;10.004;2023-07-20T07:44:00;16.50;99.90
45066;DHT22;30830;53.704;10.004;2023-07-20T07:46:26;16.50;99.90
45066;DHT22;30830;53.704;10.004;2023-07-20T07:48:51;16.60;99.90
45066;DHT22;30830;53.704;10.004;2023-07-20T07:51:17;16.80;99.90
45066;DHT22;30830;53.704;10.004;2023-07-20T07:53:42;16.90;99.90
45066;DHT22;30830;53.704;10.004;2023-07-20T07:56:09;17.10;99.90
45066;DHT22;30830;53.704;10.004;2023-07-20T07:58:34;17.30;99.90
45066;DHT22;30830;53.704;10.004;2023-07-20T08:01:00;17.50;99.90
45066;DHT22;30830;53.704;10.004;2023-07-20T08:03:26;17.60;99.90
45066;DHT22;30830;53.704;10.004;2023-07-20T08:05:54;17.70;99.90
45066;DHT22;30830;53.704;10.004;2023-07-20T08:08:24;17.90;99.90
45066;DHT22;30830;53.704;10.004;2023-07-20T08:10:52;18.10;99.90
45066;DHT22;30830;53.704;10.004;2023-07-20T08:13:18;18.10;99.90
45066;DHT22;30830;53.704;10.004;2023-07-20T08:15:48;18.30;99.90
45066;DHT22;30830;53.704;10.004;2023-07-20T08:18:14;18.40;99.90
45066;DHT22;30830;53.704;10.004;2023-07-20T08:20:39;18.70;99.90
45066;DHT22;30830;53.704;10.004;2023-07-20T08:23:08;18.80;99.90
45066;DHT22;30830;53.704;10.004;2023-07-20T08:25:36;18.50;99.90
45066;DHT22;30830;53.704;10.004;2023-07-20T08:28:04;18.60;99.90
45066;DHT22;30830;53.704;10.004;2023-07-20T08:30:40;18.70;99.90
45066;DHT22;30830;53.704;10.004;2023-07-20T08:33:05;18.70;99.90
45066;DHT22;30830;53.704;10.004;2023-07-20T08:35:31;18.90;99.90
45066;DHT22;30830;53.704;10.004;2023-07-20T08:37:57;19.00;99.90
45066;DHT22;30830;53.704;10.004;2023-07-20T08:40:22;19.00;99.90
45066;DHT22;30830;53.704;10.004;2023-07-20T08:42:48;19.10;99.90
45066;DHT22;30830;53.704;10.004;2023-07-20T08:45:16;19.40;99.90
45066;DHT22;30830;53.704;10.004;2023-07-20T08:47:43;19.50;99.90
45066;DHT22;30830;53.704;10.004;2023-07-20T08:50:11;19.60;99.90
45066;DHT22;30830;53.704;10.004;2023-07-20T08:52:38;19.70;99.90
45066;DHT22;30830;53.704;10.004;2023-07-20T08:55:04;19.70;99.90
45066;DHT22;30830;53.704;10.004;2023-07-20T08:57:33;19.60;99.90
45066;DHT22;30830;53.704;10.004;2023-07-20T09:00:01;19.70;99.90
45066;DHT22;30830;53.704;10.004;2023-07-20T09:02:31;19.80;99.90
45066;DHT22;30830;53.704;10.004;2023-07-20T09:05:00;20.00;99.90
45066;DHT22;30830;53.704;10.004;2023-07-20T09:07:26;20.10;99.90
45066;DHT22;30830;53.704;10.004;2023-07-20T09:09:51;20.20;99.90
45066;DHT22;30830;53.704;10.004;2023-07-20T09:12:17;20.00;99.90
45066;DHT22;30830;53.704;10.004;2023-07-20T09:14:43;19.60;99.90
45066;DHT22;30830;53.704;10.004;2023-07-20T09:17:13;19.20;99.90
45066;DHT22;30830;53.704;10.004;2023-07-20T09:19:45;18.80;99.90
45066;DHT22;30830;53.704;10.004;2023-07-20T09:22:11;18.50;99.90
45066;DHT22;30830;53.704;10.004;2023-07-20T09:24:36;18.40;99.90
45066;DHT22;30830;53.704;10.004;2023-07-20T09:27:02;18.40;99.90
45066;DHT22;30830;53.704;10.004;2023-07-20T09:29:30;18.30;99.90
45066;DHT22;30830;53.704;10.004;2023-07-20T09:32:03;18.30;99.90
45066;DHT22;30830;53.704;10.004;2023-07-20T09:34:30;18.50;99.90
45066;DHT22;30830;53.704;10.004;2023-07-20T09:36:59;18.60;99.90
45066;DHT22;30830;53.704;10.004;2023-07-20T09:39:26;18.70;99.90
45066;DHT22;30830;53.704;10.004;2023-07-20T09:41:52;18.90;99.90
45066;DHT22;30830;53.704;10.004;2023-07-20T09:44:18;18.90;99.90
45066;DHT22;30830;53.704;10.004;2023-07-20T09:46:50;18.90;99.90
45066;DHT22;30830;53.704;10.004;2023-07-20T09:49:18;18.90;99.90
45066;DHT22;30830;53.704;10.004;2023-07-20T09:51:45;18.90;99.90
45066;DHT22;30830;53.704;10.004;2023-07-20T09:54:11;19.00;99.90
45066;DHT22;30830;53.704;10.004;2023-07-20T09:56:38;19.10;99.90
45066;DHT22;30830;53.704;10.004;2023-07-20T09:59:05;19.00;99.90
45066;DHT22;30830;53.704;10.004;2023-07-20T10:01:32;19.10;99.90
45066;DHT22;30830;53.704;10.004;2023-07-20T10:04:03;19.30;99.90
45066;DHT22;30830;53.704;10.004;2023-07-20T10:06:32;19.50;99.90
45066;DHT22;30830;53.704;10.004;2023-07-20T10:09:03;19.50;99.90
45066;DHT22;30830;53.704;10.004;2023-07-20T10:11:35;19.30;99.90
45066;DHT22;30830;53.704;10.004;2023-07-20T10:14:03;18.80;99.90
45066;DHT22;30830;53.704;10.004;2023-07-20T10:16:34;18.30;99.90
45066;DHT22;30830;53.704;10.004;2023-07-20T10:19:13;18.10;99.90
45066;DHT22;30830;53.704;10.004;2023-07-20T10:21:45;17.90;99.90
45066;DHT22;30830;53.704;10.004;2023-07-20T10:24:13;17.80;99.90
45066;DHT22;30830;53.704;10.004;2023-07-20T10:26:39;17.80;99.90
45066;DHT22;30830;53.704;10.004;2023-07-20T10:29:05;17.80;99.90
45066;DHT22;30830;53.704;10.004;2023-07-20T10:31:32;17.90;99.90
45066;DHT22;30830;53.704;10.004;2023-07-20T10:33:59;18.00;99.90
45066;DHT22;30830;53.704;10.004;2023-07-20T10:36:27;17.90;99.90
45066;DHT22;30830;53.704;10.004;2023-07-20T10:38:55;17.90;99.90
45066;DHT22;30830;53.704;10.004;2023-07-20T10:41:22;18.00;99.90
45066;DHT22;30830;53.704;10.004;2023-07-20T10:43:50;18.00;99.90
45066;DHT22;30830;53.704;10.004;2023-07-20T10:46:34;18.10;99.90
45066;DHT22;30830;53.704;10.004;2023-07-20T10:49:03;18.20;99.90
45066;DHT22;30830;53.704;10.004;2023-07-20T10:51:43;18.30;99.90
45066;DHT22;30830;53.704;10.004;2023-07-20T10:59:47;18.40;99.90
45066;DHT22;30830;53.704;10.004;2023-07-20T11:02:12;18.20;99.90
45066;DHT22;30830;53.704;10.004;2023-07-20T11:07:05;18.20;99.90
45066;DHT22;30830;53.704;10.004;2023-07-20T11:09:37;18.30;99.90
45066;DHT22;30830;53.704;10.004;2023-07-20T11:12:10;18.60;99.90
45066;DHT22;30830;53.704;10.004;2023-07-20T11:14:41;18.60;99.90
45066;DHT22;30830;53.704;10.004;2023-07-20T11:17:14;18.50;99.90
45066;DHT22;30830;53.704;10.004;2023-07-20T11:19:40;18.30;99.90
45066;DHT22;30830;53.704;10.004;2023-07-20T11:22:06;18.30;99.90
45066;DHT22;30830;53.704;10.004;2023-07-20T11:24:41;18.50;99.90
45066;DHT22;30830;53.704;10.004;2023-07-20T11:27:07;18.60;99.90
45066;DHT22;30830;53.704;10.004;2023-07-20T11:29:34;18.60;99.90
45066;DHT22;30830;53.704;10.004;2023-07-20T11:32:03;18.50;99.90
45066;DHT22;30830;53.704;10.004;2023-07-20T11:34:30;18.20;99.90
45066;DHT22;30830;53.704;10.004;2023-07-20T11:36:57;18.00;99.90
45066;DHT22;30830;53.704;10.004;2023-07-20T11:39:23;17.80;99.90
45066;DHT22;30830;53.704;10.004;2023-07-20T11:41:52;17.40;99.90
45066;DHT22;30830;53.704;10.004;2023-07-20T11:44:22;17.10;99.90
45066;DHT22;30830;53.704;10.004;2023-07-20T11:47:08;16.70;99.90
45066;DHT22;30830;53.704;10.004;2023-07-20T11:49:38;16.30;99.90
45066;DHT22;30830;53.704;10.004;2023-07-20T11:52:06;16.20;99.90
45066;DHT22;30830;53.704;10.004;2023-07-20T11:54:32;16.20;99.90
45066;DHT22;30830;53.704;10.004;2023-07-20T11:57:01;16.10;99.90
45066;DHT22;30830;53.704;10.004;2023-07-20T11:59:26;16.10;99.90
45066;DHT22;30830;53.704;10.004;2023-07-20T12:01:52;16.00;99.90
45066;DHT22;30830;53.704;10.004;2023-07-20T12:04:18;16.00;99.90
45066;DHT22;30830;53.704;10.004;2023-07-20T12:06:45;16.00;99.90
45066;DHT22;30830;53.704;10.004;2023-07-20T12:09:14;16.10;99.90
45066;DHT22;30830;53.704;10.004;2023-07-20T12:11:43;16.30;99.90
45066;DHT22;30830;53.704;10.004;2023-07-20T12:14:09;16.40;99.90
45066;DHT22;30830;53.704;10.004;2023-07-20T12:16:36;16.50;99.90
45066;DHT22;30830;53.704;10.004;2023-07-20T12:19:10;16.60;99.90
45066;DHT22;30830;53.704;10.004;2023-07-20T12:21:38;16.70;99.90
45066;DHT22;30830;53.704;10.004;2023-07-20T12:24:05;16.80;99.90
45066;DHT22;30830;53.704;10.004;2023-07-20T12:26:32;17.00;99.90
45066;DHT22;30830;53.704;10.004;2023-07-20T12:28:59;17.00;99.90
45066;DHT22;30830;53.704;10.004;2023-07-20T12:31:26;17.00;99.90
45066;DHT22;30830;53.704;10.004;2023-07-20T12:33:51;17.00;99.90
45066;DHT22;30830;53.704;10.004;2023-07-20T12:36:18;17.10;99.90
45066;DHT22;30830;53.704;10.004;2023-07-20T12:38:44;17.10;99.90
45066;DHT22;30830;53.704;10.004;2023-07-20T12:41:11;17.20;99.90
45066;DHT22;30830;53.704;10.004;2023-07-20T12:43:44;17.30;99.90
45066;DHT22;30830;53.704;10.004;2023-07-20T12:46:11;17.30;99.90
45066;DHT22;30830;53.704;10.004;2023-07-20T12:48:40;17.40;99.90
45066;DHT22;30830;53.704;10.004;2023-07-20T12:51:08;17.60;99.90
45066;DHT22;30830;53.704;10.004;2023-07-20T12:53:34;17.60;99.90
45066;DHT22;30830;53.704;10.004;2023-07-20T12:56:00;17.60;99.90
45066;DHT22;30830;53.704;10.004;2023-07-20T12:58:26;17.60;99.90
45066;DHT22;30830;53.704;10.004;2023-07-20T13:00:52;17.70;99.90
45066;DHT22;30830;53.704;10.004;2023-07-20T13:03:18;17.80;99.90
45066;DHT22;30830;53.704;10.004;2023-07-20T13:05:48;18.00;99.90
45066;DHT22;30830;53.704;10.004;2023-07-20T13:08:14;18.10;99.90
45066;DHT22;30830;53.704;10.004;2023-07-20T13:10:40;18.10;99.90
45066;DHT22;30830;53.704;10.004;2023-07-20T13:13:06;17.90;99.90
45066;DHT22;30830;53.704;10.004;2023-07-20T13:15:40;17.80;99.90
45066;DHT22;30830;53.704;10.004;2023-07-20T13:18:06;17.70;99.90
45066;DHT22;30830;53.704;10.004;2023-07-20T13:20:34;17.60;99.90
45066;DHT22;30830;53.704;10.004;2023-07-20T13:23:00;17.60;99.90
45066;DHT22;30830;53.704;10.004;2023-07-20T13:25:25;17.80;99.90
45066;DHT22;30830;53.704;10.004;2023-07-20T13:27:51;17.90;99.90
45066;DHT22;30830;53.704;10.004;2023-07-20T13:30:17;18.00;99.90
45066;DHT22;30830;53.704;10.004;2023-07-20T13:32:43;18.00;99.90
45066;DHT22;30830;53.704;10.004;2023-07-20T13:35:10;18.20;99.90
45066;DHT22;30830;53.704;10.004;2023-07-20T13:37:36;18.30;99.90
45066;DHT22;30830;53.704;10.004;2023-07-20T13:40:01;18.50;99.90
45066;DHT22;30830;53.704;10.004;2023-07-20T13:42:27;18.50;99.90
45066;DHT22;30830;53.704;10.004;2023-07-20T13:44:52;18.40;99.90
45066;DHT22;30830;53.704;10.004;2023-07-20T13:47:18;18.20;99.90
45066;DHT22;30830;53.704;10.004;2023-07-20T13:49:43;17.90;99.90
45066;DHT22;30830;53.704;10.004;2023-07-20T13:52:09;17.90;99.90
45066;DHT22;30830;53.704;10.004;2023-07-20T13:54:35;18.10;99.90
45066;DHT22;30830;53.704;10.004;2023-07-20T13:57:00;18.30;99.90
45066;DHT22;30830;53.704;10.004;2023-07-20T13:59:26;18.40;99.90
45066;DHT22;30830;53.704;10.004;2023-07-20T14:01:51;18.70;99.90
45066;DHT22;30830;53.704;10.004;2023-07-20T14:04:17;18.80;99.90
45066;DHT22;30830;53.704;10.004;2023-07-20T14:06:42;18.80;99.90
45066;DHT22;30830;53.704;10.004;2023-07-20T14:09:09;18.90;99.90
45066;DHT22;30830;53.704;10.004;2023-07-20T14:11:34;19.00;99.90
45066;DHT22;30830;53.704;10.004;2023-07-20T14:14:00;19.00;99.90
45066;DHT22;30830;53.704;10.004;2023-07-20T14:16:25;19.10;99.90
45066;DHT22;30830;53.704;10.004;2023-07-20T14:18:51;19.10;99.90
45066;DHT22;30830;53.704;10.004;2023-07-20T14:21:18;19.10;99.90
45066;DHT22;30830;53.704;10.004;2023-07-20T14:23:51;19.10;99.90
45066;DHT22;30830;53.704;10.004;2023-07-20T14:26:18;19.20;99.90
45066;DHT22;30830;53.704;10.004;2023-07-20T14:28:44;19.30;99.90
45066;DHT22;30830;53.704;10.004;2023-07-20T14:31:10;19.40;99.90
45066;DHT22;30830;53.704;10.004;2023-07-20T14:33:35;19.40;99.90
45066;DHT22;30830;53.704;10.004;2023-07-20T14:36:02;19.40;99.90
45066;DHT22;30830;53.704;10.004;2023-07-20T14:38:28;19.50;99.90
45066;DHT22;30830;53.704;10.004;2023-07-20T14:40:54;19.50;99.90
45066;DHT22;30830;53.704;10.004;2023-07-20T14:43:21;19.30;99.90
45066;DHT22;30830;53.704;10.004;2023-07-20T14:45:46;19.20;99.90
45066;DHT22;30830;53.704;10.004;2023-07-20T14:48:12;19.10;99.90
45066;DHT22;30830;53.704;10.004;2023-07-20T14:50:37;19.10;99.90
45066;DHT22;30830;53.704;10.004;2023-07-20T14:53:03;19.10;99.90
45066;DHT22;30830;53.704;10.004;2023-07-20T14:55:29;19.00;99.90
45066;DHT22;30830;53.704;10.004;2023-07-20T14:57:54;19.00;99.90
45066;DHT22;30830;53.704;10.004;2023-07-20T15:00:20;19.00;99.90
45066;DHT22;30830;53.704;10.004;2023-07-20T15:02:46;18.80;99.90
45066;DHT22;30830;53.704;10.004;2023-07-20T15:05:11;18.80;99.90
45066;DHT22;30830;53.704;10.004;2023-07-20T15:07:37;18.90;99.90
45066;DHT22;30830;53.704;10.004;2023-07-20T15:10:04;18.90;99.90
45066;DHT22;30830;53.704;10.004;2023-07-20T15:12:30;19.00;99.90
45066;DHT22;30830;53.704;10.004;2023-07-20T15:17:30;19.10;99.90
45066;DHT22;30830;53.704;10.004;2023-07-20T15:19:56;19.10;99.90
45066;DHT22;30830;53.704;10.004;2023-07-20T15:22:21;19.20;99.90
45066;DHT22;30830;53.704;10.004;2023-07-20T15:24:47;19.20;99.90
45066;DHT22;30830;53.704;10.004;2023-07-20T15:27:13;19.20;99.90
45066;DHT22;30830;53.704;10.004;2023-07-20T15:29:38;19.30;99.90